sensor_id;sensor_type;location;lat;lon;timestamp;P1;durP1;ratioP1;P2;durP2;ratioP2
21492;SDS011;10908;50.690;4.400;2023-04-06T00:01:55;25.55;;;11.15;;
21492;SDS011;10908;50.690;4.400;2023-04-06T00:04:20;23.80;;;11.13;;
21492;SDS011;10908;50.690;4.400;2023-04-06T00:06:46;24.67;;;11.20;;
21492;SDS011;10908;50.690;4.400;2023-04-06T00:09:12;23.33;;;11.38;;
21492;SDS011;10908;50.690;4.400;2023-04-06T00:11:37;22.80;;;11.50;;
21492;SDS011;10908;50.690;4.400;2023-04-06T00:14:03;20.35;;;11.13;;
21492;SDS011;10908;50.690;4.400;2023-04-06T00:16:29;23.80;;;11.48;;
21492;SDS011;10908;50.690;4.400;2023-04-06T00:18:55;22.23;;;10.95;;
21492;SDS011;10908;50.690;4.400;2023-04-06T00:21:20;21.38;;;10.70;;
21492;SDS011;10908;50.690;4.400;2023-04-06T00:23:46;26.00;;;11.07;;
21492;SDS011;10908;50.690;4.400;2023-04-06T00:26:11;22.05;;;11.25;;
21492;SDS011;10908;50.690;4.400;2023-04-06T00:28:37;23.05;;;11.05;;
21492;SDS011;10908;50.690;4.400;2023-04-06T00:31:03;20.33;;;10.98;;
21492;SDS011;10908;50.690;4.400;2023-04-06T00:33:29;23.23;;;11.00;;
21492;SDS011;10908;50.690;4.400;2023-04-06T00:35:55;22.05;;;11.20;;
21492;SDS011;10908;50.690;4.400;2023-04-06T00:38:21;19.85;;;10.88;;
21492;SDS011;10908;50.690;4.400;2023-04-06T00:40:46;23.52;;;11.32;;
21492;SDS011;10908;50.690;4.400;2023-04-06T00:43:12;22.65;;;10.95;;
21492;SDS011;10908;50.690;4.400;2023-04-06T00:45:38;21.77;;;11.00;;
21492;SDS011;10908;50.690;4.400;2023-04-06T00:48:05;22.17;;;10.32;;
21492;SDS011;10908;50.690;4.400;2023-04-06T00:50:31;19.65;;;11.05;;
21492;SDS011;10908;50.690;4.400;2023-04-06T00:52:58;21.63;;;11.48;;
21492;SDS011;10908;50.690;4.400;2023-04-06T00:55:24;26.42;;;11.00;;
21492;SDS011;10908;50.690;4.400;2023-04-06T00:57:51;21.50;;;10.65;;
21492;SDS011;10908;50.690;4.400;2023-04-06T01:00:17;24.08;;;10.88;;
21492;SDS011;10908;50.690;4.400;2023-04-06T01:02:43;21.13;;;11.13;;
21492;SDS011;10908;50.690;4.400;2023-04-06T01:05:10;20.70;;;10.90;;
21492;SDS011;10908;50.690;4.400;2023-04-06T01:07:36;26.42;;;10.90;;
21492;SDS011;10908;50.690;4.400;2023-04-06T01:10:01;20.33;;;10.57;;
21492;SDS011;10908;50.690;4.400;2023-04-06T01:12:27;21.42;;;10.63;;
21492;SDS011;10908;50.690;4.400;2023-04-06T01:14:54;22.98;;;10.55;;
21492;SDS011;10908;50.690;4.400;2023-04-06T01:17:20;19.70;;;10.43;;
21492;SDS011;10908;50.690;4.400;2023-04-06T01:19:45;19.45;;;10.27;;
21492;SDS011;10908;50.690;4.400;2023-04-06T01:22:17;21.63;;;10.15;;
21492;SDS011;10908;50.690;4.400;2023-04-06T01:24:43;19.35;;;10.38;;
21492;SDS011;10908;50.690;4.400;2023-04-06T01:27:09;20.77;;;11.10;;
21492;SDS011;10908;50.690;4.400;2023-04-06T01:29:35;20.20;;;11.02;;
21492;SDS011;10908;50.690;4.400;2023-04-06T01:32:01;21.02;;;11.15;;
21492;SDS011;10908;50.690;4.400;2023-04-06T01:34:27;24.05;;;10.80;;
21492;SDS011;10908;50.690;4.400;2023-04-06T01:36:52;23.65;;;10.93;;
21492;SDS011;10908;50.690;4.400;2023-04-06T01:39:19;18.98;;;10.50;;
21492;SDS011;10908;50.690;4.400;2023-04-06T01:41:45;18.27;;;10.20;;
21492;SDS011;10908;50.690;4.400;2023-04-06T01:44:12;19.77;;;10.32;;
21492;SDS011;10908;50.690;4.400;2023-04-06T01:46:41;20.60;;;11.20;;
21492;SDS011;10908;50.690;4.400;2023-04-06T01:49:06;21.10;;;10.18;;
21492;SDS011;10908;50.690;4.400;2023-04-06T01:51:32;19.77;;;11.30;;
21492;SDS011;10908;50.690;4.400;2023-04-06T01:53:58;22.60;;;11.00;;
21492;SDS011;10908;50.690;4.400;2023-04-06T01:56:23;23.38;;;11.50;;
21492;SDS011;10908;50.690;4.400;2023-04-06T01:58:49;20.10;;;11.00;;
21492;SDS011;10908;50.690;4.400;2023-04-06T02:01:15;23.25;;;11.52;;
21492;SDS011;10908;50.690;4.400;2023-04-06T02:03:40;20.80;;;11.30;;
21492;SDS011;10908;50.690;4.400;2023-04-06T02:06:06;21.65;;;11.10;;
21492;SDS011;10908;50.690;4.400;2023-04-06T02:08:32;22.35;;;10.88;;
21492;SDS011;10908;50.690;4.400;2023-04-06T02:10:57;22.65;;;11.40;;
21492;SDS011;10908;50.690;4.400;2023-04-06T02:13:23;24.35;;;10.88;;
21492;SDS011;10908;50.690;4.400;2023-04-06T02:15:49;20.13;;;11.18;;
21492;SDS011;10908;50.690;4.400;2023-04-06T02:18:15;20.42;;;10.82;;
21492;SDS011;10908;50.690;4.400;2023-04-06T02:20:42;20.52;;;10.65;;
21492;SDS011;10908;50.690;4.400;2023-04-06T02:23:08;22.73;;;11.20;;
21492;SDS011;10908;50.690;4.400;2023-04-06T02:25:34;22.10;;;11.43;;
21492;SDS011;10908;50.690;4.400;2023-04-06T02:27:59;21.65;;;11.18;;
21492;SDS011;10908;50.690;4.400;2023-04-06T02:30:25;22.70;;;11.65;;
21492;SDS011;10908;50.690;4.400;2023-04-06T02:32:51;23.63;;;11.63;;
21492;SDS011;10908;50.690;4.400;2023-04-06T02:35:17;21.15;;;11.00;;
21492;SDS011;10908;50.690;4.400;2023-04-06T02:37:43;20.92;;;11.20;;
21492;SDS011;10908;50.690;4.400;2023-04-06T02:40:09;21.70;;;10.98;;
21492;SDS011;10908;50.690;4.400;2023-04-06T02:42:35;21.65;;;11.32;;
21492;SDS011;10908;50.690;4.400;2023-04-06T02:45:00;23.77;;;11.15;;
21492;SDS011;10908;50.690;4.400;2023-04-06T02:47:26;22.17;;;11.52;;
21492;SDS011;10908;50.690;4.400;2023-04-06T02:49:52;24.45;;;11.45;;
21492;SDS011;10908;50.690;4.400;2023-04-06T02:52:18;21.38;;;11.27;;
21492;SDS011;10908;50.690;4.400;2023-04-06T02:54:43;21.60;;;11.65;;
21492;SDS011;10908;50.690;4.400;2023-04-06T02:57:09;22.15;;;11.65;;
21492;SDS011;10908;50.690;4.400;2023-04-06T02:59:35;19.70;;;10.70;;
21492;SDS011;10908;50.690;4.400;2023-04-06T03:02:00;22.63;;;11.48;;
21492;SDS011;10908;50.690;4.400;2023-04-06T03:04:26;20.80;;;11.25;;
21492;SDS011;10908;50.690;4.400;2023-04-06T03:06:53;20.65;;;10.82;;
21492;SDS011;10908;50.690;4.400;2023-04-06T03:09:20;21.55;;;11.35;;
21492;SDS011;10908;50.690;4.400;2023-04-06T03:11:45;22.92;;;11.10;;
21492;SDS011;10908;50.690;4.400;2023-04-06T03:14:11;22.50;;;11.88;;
21492;SDS011;10908;50.690;4.400;2023-04-06T03:16:37;22.05;;;10.90;;
21492;SDS011;10908;50.690;4.400;2023-04-06T03:19:02;21.98;;;11.00;;
21492;SDS011;10908;50.690;4.400;2023-04-06T03:21:28;22.95;;;10.63;;
21492;SDS011;10908;50.690;4.400;2023-04-06T03:23:54;19.15;;;10.55;;
21492;SDS011;10908;50.690;4.400;2023-04-06T03:26:19;20.48;;;11.27;;
21492;SDS011;10908;50.690;4.400;2023-04-06T03:28:47;18.92;;;10.80;;
21492;SDS011;10908;50.690;4.400;2023-04-06T03:31:12;19.25;;;10.60;;
21492;SDS011;10908;50.690;4.400;2023-04-06T03:33:38;25.42;;;11.25;;
21492;SDS011;10908;50.690;4.400;2023-04-06T03:36:04;22.92;;;11.13;;
21492;SDS011;10908;50.690;4.400;2023-04-06T03:38:30;24.35;;;11.38;;
21492;SDS011;10908;50.690;4.400;2023-04-06T03:40:56;19.95;;;10.75;;
21492;SDS011;10908;50.690;4.400;2023-04-06T03:43:21;21.60;;;11.02;;
21492;SDS011;10908;50.690;4.400;2023-04-06T03:45:47;23.92;;;10.98;;
21492;SDS011;10908;50.690;4.400;2023-04-06T03:48:13;20.55;;;10.95;;
21492;SDS011;10908;50.690;4.400;2023-04-06T03:50:38;19.77;;;11.27;;
21492;SDS011;10908;50.690;4.400;2023-04-06T03:53:04;20.20;;;10.25;;
21492;SDS011;10908;50.690;4.400;2023-04-06T03:55:30;20.92;;;10.55;;
21492;SDS011;10908;50.690;4.400;2023-04-06T03:57:55;21.00;;;10.60;;
21492;SDS011;10908;50.690;4.400;2023-04-06T04:00:21;25.42;;;10.93;;
21492;SDS011;10908;50.690;4.400;2023-04-06T04:02:47;19.63;;;9.48;;
21492;SDS011;10908;50.690;4.400;2023-04-06T04:05:13;20.17;;;10.07;;
21492;SDS011;10908;50.690;4.400;2023-04-06T04:07:38;21.25;;;9.93;;
21492;SDS011;10908;50.690;4.400;2023-04-06T04:10:04;18.92;;;10.00;;
21492;SDS011;10908;50.690;4.400;2023-04-06T04:12:30;20.25;;;10.18;;
21492;SDS011;10908;50.690;4.400;2023-04-06T04:14:56;21.08;;;10.45;;
21492;SDS011;10908;50.690;4.400;2023-04-06T04:17:22;19.73;;;10.23;;
21492;SDS011;10908;50.690;4.400;2023-04-06T04:19:47;18.70;;;10.35;;
21492;SDS011;10908;50.690;4.400;2023-04-06T04:22:13;19.33;;;10.20;;
21492;SDS011;10908;50.690;4.400;2023-04-06T04:24:39;22.38;;;10.52;;
21492;SDS011;10908;50.690;4.400;2023-04-06T04:27:04;20.35;;;10.23;;
21492;SDS011;10908;50.690;4.400;2023-04-06T04:29:30;21.77;;;9.98;;
21492;SDS011;10908;50.690;4.400;2023-04-06T04:31:56;21.90;;;9.93;;
21492;SDS011;10908;50.690;4.400;2023-04-06T04:34:22;19.60;;;10.23;;
21492;SDS011;10908;50.690;4.400;2023-04-06T04:36:50;20.90;;;10.23;;
21492;SDS011;10908;50.690;4.400;2023-04-06T04:39:16;24.08;;;10.48;;
21492;SDS011;10908;50.690;4.400;2023-04-06T04:41:42;21.45;;;10.25;;
21492;SDS011;10908;50.690;4.400;2023-04-06T04:44:07;21.73;;;10.23;;
21492;SDS011;10908;50.690;4.400;2023-04-06T04:46:33;20.05;;;10.13;;
21492;SDS011;10908;50.690;4.400;2023-04-06T04:48:59;20.20;;;10.35;;
21492;SDS011;10908;50.690;4.400;2023-04-06T04:51:25;21.58;;;10.70;;
21492;SDS011;10908;50.690;4.400;2023-04-06T04:53:50;21.55;;;10.27;;
21492;SDS011;10908;50.690;4.400;2023-04-06T04:56:16;21.20;;;10.57;;
21492;SDS011;10908;50.690;4.400;2023-04-06T04:58:42;20.85;;;10.65;;
21492;SDS011;10908;50.690;4.400;2023-04-06T05:01:07;21.35;;;10.57;;
21492;SDS011;10908;50.690;4.400;2023-04-06T05:03:33;19.33;;;10.23;;
21492;SDS011;10908;50.690;4.400;2023-04-06T05:06:00;20.52;;;10.98;;
21492;SDS011;10908;50.690;4.400;2023-04-06T05:08:26;19.20;;;9.68;;
21492;SDS011;10908;50.690;4.400;2023-04-06T05:10:52;24.25;;;10.77;;
21492;SDS011;10908;50.690;4.400;2023-04-06T05:13:17;20.98;;;10.95;;
21492;SDS011;10908;50.690;4.400;2023-04-06T05:15:43;22.25;;;11.10;;
21492;SDS011;10908;50.690;4.400;2023-04-06T05:18:09;22.00;;;10.55;;
21492;SDS011;10908;50.690;4.400;2023-04-06T05:20:36;22.52;;;11.25;;
21492;SDS011;10908;50.690;4.400;2023-04-06T05:23:03;28.98;;;12.07;;
21492;SDS011;10908;50.690;4.400;2023-04-06T05:25:28;23.23;;;12.27;;
21492;SDS011;10908;50.690;4.400;2023-04-06T05:27:54;22.80;;;10.75;;
21492;SDS011;10908;50.690;4.400;2023-04-06T05:30:20;21.75;;;10.82;;
21492;SDS011;10908;50.690;4.400;2023-04-06T05:32:46;22.60;;;10.88;;
21492;SDS011;10908;50.690;4.400;2023-04-06T05:35:12;19.10;;;10.13;;
21492;SDS011;10908;50.690;4.400;2023-04-06T05:37:38;27.38;;;11.23;;
21492;SDS011;10908;50.690;4.400;2023-04-06T05:40:04;21.95;;;11.05;;
21492;SDS011;10908;50.690;4.400;2023-04-06T05:42:37;20.48;;;10.23;;
21492;SDS011;10908;50.690;4.400;2023-04-06T05:45:07;25.30;;;10.90;;
21492;SDS011;10908;50.690;4.400;2023-04-06T05:47:35;27.13;;;11.10;;
21492;SDS011;10908;50.690;4.400;2023-04-06T05:50:01;22.25;;;11.30;;
21492;SDS011;10908;50.690;4.400;2023-04-06T05:52:27;22.80;;;11.38;;
21492;SDS011;10908;50.690;4.400;2023-04-06T05:54:53;23.75;;;11.07;;
21492;SDS011;10908;50.690;4.400;2023-04-06T05:57:19;22.90;;;10.75;;
21492;SDS011;10908;50.690;4.400;2023-04-06T05:59:45;26.17;;;11.35;;
21492;SDS011;10908;50.690;4.400;2023-04-06T06:02:10;22.60;;;11.25;;
21492;SDS011;10908;50.690;4.400;2023-04-06T06:04:36;21.60;;;11.50;;
21492;SDS011;10908;50.690;4.400;2023-04-06T06:07:02;23.60;;;10.93;;
21492;SDS011;10908;50.690;4.400;2023-04-06T06:09:28;22.52;;;11.90;;
21492;SDS011;10908;50.690;4.400;2023-04-06T06:11:54;22.55;;;10.68;;
21492;SDS011;10908;50.690;4.400;2023-04-06T06:14:19;21.65;;;11.32;;
21492;SDS011;10908;50.690;4.400;2023-04-06T06:16:46;25.05;;;11.25;;
21492;SDS011;10908;50.690;4.400;2023-04-06T06:19:12;24.13;;;11.40;;
21492;SDS011;10908;50.690;4.400;2023-04-06T06:21:38;23.60;;;11.60;;
21492;SDS011;10908;50.690;4.400;2023-04-06T06:24:04;20.65;;;11.07;;
21492;SDS011;10908;50.690;4.400;2023-04-06T06:26:30;25.38;;;11.57;;
21492;SDS011;10908;50.690;4.400;2023-04-06T06:28:56;23.10;;;11.65;;
21492;SDS011;10908;50.690;4.400;2023-04-06T06:31:22;22.42;;;11.18;;
21492;SDS011;10908;50.690;4.400;2023-04-06T06:33:51;22.48;;;11.73;;
21492;SDS011;10908;50.690;4.400;2023-04-06T06:36:17;24.00;;;11.27;;
21492;SDS011;10908;50.690;4.400;2023-04-06T06:38:43;21.58;;;11.48;;
21492;SDS011;10908;50.690;4.400;2023-04-06T06:41:09;21.95;;;10.45;;
21492;SDS011;10908;50.690;4.400;2023-04-06T06:43:35;24.05;;;11.68;;
21492;SDS011;10908;50.690;4.400;2023-04-06T06:46:01;22.30;;;12.07;;
21492;SDS011;10908;50.690;4.400;2023-04-06T06:48:27;21.98;;;12.30;;
21492;SDS011;10908;50.690;4.400;2023-04-06T06:50:53;23.40;;;12.02;;
21492;SDS011;10908;50.690;4.400;2023-04-06T06:53:19;23.65;;;11.98;;
21492;SDS011;10908;50.690;4.400;2023-04-06T06:55:45;21.23;;;11.90;;
21492;SDS011;10908;50.690;4.400;2023-04-06T06:58:13;22.17;;;12.20;;
21492;SDS011;10908;50.690;4.400;2023-04-06T07:00:40;22.60;;;12.43;;
21492;SDS011;10908;50.690;4.400;2023-04-06T07:03:08;26.00;;;13.18;;
21492;SDS011;10908;50.690;4.400;2023-04-06T07:05:33;25.02;;;12.95;;
21492;SDS011;10908;50.690;4.400;2023-04-06T07:07:59;28.67;;;13.00;;
21492;SDS011;10908;50.690;4.400;2023-04-06T07:10:26;26.33;;;12.90;;
21492;SDS011;10908;50.690;4.400;2023-04-06T07:12:52;25.95;;;13.02;;
21492;SDS011;10908;50.690;4.400;2023-04-06T07:15:17;23.95;;;12.52;;
21492;SDS011;10908;50.690;4.400;2023-04-06T07:17:43;28.02;;;13.13;;
21492;SDS011;10908;50.690;4.400;2023-04-06T07:20:12;24.90;;;12.85;;
21492;SDS011;10908;50.690;4.400;2023-04-06T07:22:38;22.77;;;12.05;;
21492;SDS011;10908;50.690;4.400;2023-04-06T07:25:05;25.88;;;13.27;;
21492;SDS011;10908;50.690;4.400;2023-04-06T07:27:31;26.23;;;13.13;;
21492;SDS011;10908;50.690;4.400;2023-04-06T07:29:57;26.60;;;13.18;;
21492;SDS011;10908;50.690;4.400;2023-04-06T07:32:22;22.52;;;11.82;;
21492;SDS011;10908;50.690;4.400;2023-04-06T07:34:48;23.70;;;12.63;;
21492;SDS011;10908;50.690;4.400;2023-04-06T07:37:14;24.52;;;12.52;;
21492;SDS011;10908;50.690;4.400;2023-04-06T07:39:40;27.17;;;12.57;;
21492;SDS011;10908;50.690;4.400;2023-04-06T07:42:06;24.80;;;11.85;;
21492;SDS011;10908;50.690;4.400;2023-04-06T07:44:31;25.40;;;12.77;;
21492;SDS011;10908;50.690;4.400;2023-04-06T07:46:57;22.92;;;12.25;;
21492;SDS011;10908;50.690;4.400;2023-04-06T07:49:23;25.65;;;12.30;;
21492;SDS011;10908;50.690;4.400;2023-04-06T07:51:49;21.30;;;11.20;;
21492;SDS011;10908;50.690;4.400;2023-04-06T07:54:14;22.10;;;11.70;;
21492;SDS011;10908;50.690;4.400;2023-04-06T07:56:40;21.75;;;11.73;;
21492;SDS011;10908;50.690;4.400;2023-04-06T07:59:06;21.65;;;11.77;;
21492;SDS011;10908;50.690;4.400;2023-04-06T08:01:32;23.52;;;11.30;;
21492;SDS011;10908;50.690;4.400;2023-04-06T08:03:58;22.20;;;11.15;;
21492;SDS011;10908;50.690;4.400;2023-04-06T08:06:24;22.63;;;11.75;;
21492;SDS011;10908;50.690;4.400;2023-04-06T08:08:50;20.77;;;10.38;;
21492;SDS011;10908;50.690;4.400;2023-04-06T08:11:15;18.90;;;10.50;;
21492;SDS011;10908;50.690;4.400;2023-04-06T08:13:41;19.70;;;10.88;;
21492;SDS011;10908;50.690;4.400;2023-04-06T08:16:07;20.38;;;10.02;;
21492;SDS011;10908;50.690;4.400;2023-04-06T08:18:33;20.42;;;10.45;;
21492;SDS011;10908;50.690;4.400;2023-04-06T08:20:58;20.23;;;10.27;;
21492;SDS011;10908;50.690;4.400;2023-04-06T08:23:24;20.40;;;10.50;;
21492;SDS011;10908;50.690;4.400;2023-04-06T08:25:50;19.67;;;9.43;;
21492;SDS011;10908;50.690;4.400;2023-04-06T08:28:19;18.30;;;9.63;;
21492;SDS011;10908;50.690;4.400;2023-04-06T08:30:45;20.30;;;10.35;;
21492;SDS011;10908;50.690;4.400;2023-04-06T08:33:11;19.05;;;9.60;;
21492;SDS011;10908;50.690;4.400;2023-04-06T08:35:37;22.67;;;10.13;;
21492;SDS011;10908;50.690;4.400;2023-04-06T08:38:02;23.42;;;10.20;;
21492;SDS011;10908;50.690;4.400;2023-04-06T08:40:28;19.48;;;10.27;;
21492;SDS011;10908;50.690;4.400;2023-04-06T08:42:55;21.75;;;10.77;;
21492;SDS011;10908;50.690;4.400;2023-04-06T08:45:22;18.92;;;10.25;;
21492;SDS011;10908;50.690;4.400;2023-04-06T08:47:49;19.00;;;9.50;;
21492;SDS011;10908;50.690;4.400;2023-04-06T08:50:16;20.00;;;9.50;;
21492;SDS011;10908;50.690;4.400;2023-04-06T08:52:43;20.33;;;10.27;;
21492;SDS011;10908;50.690;4.400;2023-04-06T08:55:13;20.20;;;10.18;;
21492;SDS011;10908;50.690;4.400;2023-04-06T08:57:39;22.02;;;10.25;;
21492;SDS011;10908;50.690;4.400;2023-04-06T09:00:07;22.55;;;10.43;;
21492;SDS011;10908;50.690;4.400;2023-04-06T09:02:36;20.50;;;10.68;;
21492;SDS011;10908;50.690;4.400;2023-04-06T09:05:08;24.27;;;12.07;;
21492;SDS011;10908;50.690;4.400;2023-04-06T09:07:37;18.95;;;10.32;;
21492;SDS011;10908;50.690;4.400;2023-04-06T09:10:04;22.15;;;11.20;;
21492;SDS011;10908;50.690;4.400;2023-04-06T09:12:31;19.95;;;10.23;;
21492;SDS011;10908;50.690;4.400;2023-04-06T09:14:57;17.67;;;9.15;;
21492;SDS011;10908;50.690;4.400;2023-04-06T09:17:28;18.05;;;9.45;;
21492;SDS011;10908;50.690;4.400;2023-04-06T09:19:57;19.23;;;10.25;;
21492;SDS011;10908;50.690;4.400;2023-04-06T09:22:23;19.08;;;9.95;;
21492;SDS011;10908;50.690;4.400;2023-04-06T09:24:53;16.98;;;9.85;;
21492;SDS011;10908;50.690;4.400;2023-04-06T09:27:36;17.23;;;9.70;;
21492;SDS011;10908;50.690;4.400;2023-04-06T09:30:07;19.10;;;9.35;;
21492;SDS011;10908;50.690;4.400;2023-04-06T09:32:51;17.83;;;9.95;;
21492;SDS011;10908;50.690;4.400;2023-04-06T09:35:19;17.27;;;9.07;;
21492;SDS011;10908;50.690;4.400;2023-04-06T09:37:46;18.25;;;9.13;;
21492;SDS011;10908;50.690;4.400;2023-04-06T09:40:12;17.92;;;8.70;;
21492;SDS011;10908;50.690;4.400;2023-04-06T09:42:42;16.27;;;9.10;;
21492;SDS011;10908;50.690;4.400;2023-04-06T09:45:10;14.70;;;8.52;;
21492;SDS011;10908;50.690;4.400;2023-04-06T09:47:36;17.70;;;8.32;;
21492;SDS011;10908;50.690;4.400;2023-04-06T09:50:05;16.15;;;8.55;;
21492;SDS011;10908;50.690;4.400;2023-04-06T09:52:33;18.63;;;8.77;;
21492;SDS011;10908;50.690;4.400;2023-04-06T09:55:03;16.02;;;8.18;;
21492;SDS011;10908;50.690;4.400;2023-04-06T09:57:37;16.73;;;8.57;;
21492;SDS011;10908;50.690;4.400;2023-04-06T10:00:12;15.75;;;8.63;;
21492;SDS011;10908;50.690;4.400;2023-04-06T10:02:58;15.73;;;8.70;;
21492;SDS011;10908;50.690;4.400;2023-04-06T10:08:06;16.65;;;8.45;;
21492;SDS011;10908;50.690;4.400;2023-04-06T10:10:35;16.48;;;8.55;;
21492;SDS011;10908;50.690;4.400;2023-04-06T10:13:01;17.17;;;8.80;;
21492;SDS011;10908;50.690;4.400;2023-04-06T10:15:28;16.17;;;8.73;;
21492;SDS011;10908;50.690;4.400;2023-04-06T10:17:55;16.50;;;9.05;;
21492;SDS011;10908;50.690;4.400;2023-04-06T10:20:27;17.08;;;8.52;;
21492;SDS011;10908;50.690;4.400;2023-04-06T10:25:58;16.58;;;9.05;;
21492;SDS011;10908;50.690;4.400;2023-04-06T10:28:25;15.95;;;8.73;;
21492;SDS011;10908;50.690;4.400;2023-04-06T10:30:59;16.63;;;9.23;;
21492;SDS011;10908;50.690;4.400;2023-04-06T10:33:27;17.98;;;9.88;;
21492;SDS011;10908;50.690;4.400;2023-04-06T10:35:54;18.63;;;10.15;;
21492;SDS011;10908;50.690;4.400;2023-04-06T10:38:35;16.95;;;9.57;;
21492;SDS011;10908;50.690;4.400;2023-04-06T10:41:06;18.58;;;9.63;;
21492;SDS011;10908;50.690;4.400;2023-04-06T10:43:33;18.75;;;10.20;;
21492;SDS011;10908;50.690;4.400;2023-04-06T10:46:00;17.75;;;10.02;;
21492;SDS011;10908;50.690;4.400;2023-04-06T10:48:42;18.90;;;10.48;;
21492;SDS011;10908;50.690;4.400;2023-04-06T10:51:14;18.80;;;10.27;;
21492;SDS011;10908;50.690;4.400;2023-04-06T10:53:41;18.35;;;9.88;;
21492;SDS011;10908;50.690;4.400;2023-04-06T10:56:15;20.83;;;10.35;;
21492;SDS011;10908;50.690;4.400;2023-04-06T10:58:53;17.50;;;9.23;;
21492;SDS011;10908;50.690;4.400;2023-04-06T11:01:23;16.98;;;9.35;;
21492;SDS011;10908;50.690;4.400;2023-04-06T11:03:52;17.33;;;9.43;;
21492;SDS011;10908;50.690;4.400;2023-04-06T11:06:21;18.33;;;9.45;;
21492;SDS011;10908;50.690;4.400;2023-04-06T11:08:48;19.10;;;9.73;;
21492;SDS011;10908;50.690;4.400;2023-04-06T11:11:15;16.73;;;9.57;;
21492;SDS011;10908;50.690;4.400;2023-04-06T11:16:30;16.90;;;9.25;;
21492;SDS011;10908;50.690;4.400;2023-04-06T11:19:03;17.13;;;9.63;;
21492;SDS011;10908;50.690;4.400;2023-04-06T11:24:06;20.55;;;10.43;;
21492;SDS011;10908;50.690;4.400;2023-04-06T11:26:37;17.27;;;10.00;;
21492;SDS011;10908;50.690;4.400;2023-04-06T11:29:04;17.65;;;9.85;;
21492;SDS011;10908;50.690;4.400;2023-04-06T11:31:30;17.10;;;10.05;;
21492;SDS011;10908;50.690;4.400;2023-04-06T11:33:56;19.13;;;10.20;;
21492;SDS011;10908;50.690;4.400;2023-04-06T11:36:22;19.02;;;9.68;;
21492;SDS011;10908;50.690;4.400;2023-04-06T11:38:48;18.00;;;10.00;;
21492;SDS011;10908;50.690;4.400;2023-04-06T11:41:14;17.35;;;9.80;;
21492;SDS011;10908;50.690;4.400;2023-04-06T11:43:45;20.27;;;10.60;;
21492;SDS011;10908;50.690;4.400;2023-04-06T11:46:16;16.35;;;10.15;;
21492;SDS011;10908;50.690;4.400;2023-04-06T11:48:44;19.40;;;10.48;;
21492;SDS011;10908;50.690;4.400;2023-04-06T11:51:11;17.90;;;10.40;;
21492;SDS011;10908;50.690;4.400;2023-04-06T11:53:46;19.58;;;10.75;;
21492;SDS011;10908;50.690;4.400;2023-04-06T11:56:22;22.58;;;11.05;;
21492;SDS011;10908;50.690;4.400;2023-04-06T11:58:52;17.52;;;10.02;;
21492;SDS011;10908;50.690;4.400;2023-04-06T12:01:19;18.27;;;10.70;;
21492;SDS011;10908;50.690;4.400;2023-04-06T12:03:45;18.05;;;11.00;;
21492;SDS011;10908;50.690;4.400;2023-04-06T12:06:11;19.38;;;10.57;;
21492;SDS011;10908;50.690;4.400;2023-04-06T12:08:37;20.15;;;11.43;;
21492;SDS011;10908;50.690;4.400;2023-04-06T12:11:02;20.65;;;11.43;;
21492;SDS011;10908;50.690;4.400;2023-04-06T12:13:28;20.92;;;11.35;;
21492;SDS011;10908;50.690;4.400;2023-04-06T12:15:54;18.77;;;10.93;;
21492;SDS011;10908;50.690;4.400;2023-04-06T12:18:20;19.98;;;11.27;;
21492;SDS011;10908;50.690;4.400;2023-04-06T12:20:46;20.27;;;11.70;;
21492;SDS011;10908;50.690;4.400;2023-04-06T12:23:11;20.13;;;10.85;;
21492;SDS011;10908;50.690;4.400;2023-04-06T12:25:38;20.75;;;11.55;;
21492;SDS011;10908;50.690;4.400;2023-04-06T12:28:06;22.40;;;11.90;;
21492;SDS011;10908;50.690;4.400;2023-04-06T12:30:32;18.13;;;10.57;;
21492;SDS011;10908;50.690;4.400;2023-04-06T12:32:57;21.65;;;11.68;;
21492;SDS011;10908;50.690;4.400;2023-04-06T12:35:23;20.15;;;11.00;;
21492;SDS011;10908;50.690;4.400;2023-04-06T12:37:49;18.23;;;11.20;;
21492;SDS011;10908;50.690;4.400;2023-04-06T12:40:15;18.63;;;10.85;;
21492;SDS011;10908;50.690;4.400;2023-04-06T12:42:41;20.67;;;11.25;;
21492;SDS011;10908;50.690;4.400;2023-04-06T12:45:07;18.42;;;10.90;;
21492;SDS011;10908;50.690;4.400;2023-04-06T12:47:33;20.05;;;10.63;;
21492;SDS011;10908;50.690;4.400;2023-04-06T12:50:01;20.80;;;11.80;;
21492;SDS011;10908;50.690;4.400;2023-04-06T12:52:28;19.83;;;12.50;;
21492;SDS011;10908;50.690;4.400;2023-04-06T12:54:56;25.15;;;12.00;;
21492;SDS011;10908;50.690;4.400;2023-04-06T12:57:22;18.50;;;11.52;;
21492;SDS011;10908;50.690;4.400;2023-04-06T12:59:48;22.13;;;12.38;;
21492;SDS011;10908;50.690;4.400;2023-04-06T13:02:13;20.58;;;11.63;;
21492;SDS011;10908;50.690;4.400;2023-04-06T13:04:39;22.15;;;12.43;;
21492;SDS011;10908;50.690;4.400;2023-04-06T13:07:05;22.23;;;12.57;;
21492;SDS011;10908;50.690;4.400;2023-04-06T13:09:31;21.50;;;12.23;;
21492;SDS011;10908;50.690;4.400;2023-04-06T13:11:57;20.88;;;12.63;;
21492;SDS011;10908;50.690;4.400;2023-04-06T13:14:22;21.92;;;12.07;;
21492;SDS011;10908;50.690;4.400;2023-04-06T13:16:48;22.08;;;12.82;;
21492;SDS011;10908;50.690;4.400;2023-04-06T13:19:14;26.77;;;12.77;;
21492;SDS011;10908;50.690;4.400;2023-04-06T13:21:40;22.58;;;12.85;;
21492;SDS011;10908;50.690;4.400;2023-04-06T13:24:06;23.90;;;13.13;;
21492;SDS011;10908;50.690;4.400;2023-04-06T13:26:32;22.27;;;12.40;;
21492;SDS011;10908;50.690;4.400;2023-04-06T13:28:58;21.83;;;12.30;;
21492;SDS011;10908;50.690;4.400;2023-04-06T13:31:25;21.80;;;12.43;;
21492;SDS011;10908;50.690;4.400;2023-04-06T13:33:51;21.52;;;12.43;;
21492;SDS011;10908;50.690;4.400;2023-04-06T13:36:17;20.25;;;11.05;;
21492;SDS011;10908;50.690;4.400;2023-04-06T13:38:42;17.75;;;10.63;;
21492;SDS011;10908;50.690;4.400;2023-04-06T13:41:08;21.25;;;12.02;;
21492;SDS011;10908;50.690;4.400;2023-04-06T13:43:34;19.10;;;11.20;;
21492;SDS011;10908;50.690;4.400;2023-04-06T13:46:00;21.55;;;11.88;;
21492;SDS011;10908;50.690;4.400;2023-04-06T13:48:26;18.50;;;11.52;;
21492;SDS011;10908;50.690;4.400;2023-04-06T13:50:52;21.70;;;11.85;;
21492;SDS011;10908;50.690;4.400;2023-04-06T13:53:17;21.50;;;11.93;;
21492;SDS011;10908;50.690;4.400;2023-04-06T13:55:43;21.42;;;12.32;;
21492;SDS011;10908;50.690;4.400;2023-04-06T13:58:16;23.25;;;12.30;;
21492;SDS011;10908;50.690;4.400;2023-04-06T14:00:42;21.30;;;12.93;;
21492;SDS011;10908;50.690;4.400;2023-04-06T14:03:07;20.02;;;11.95;;
21492;SDS011;10908;50.690;4.400;2023-04-06T14:05:33;20.90;;;12.35;;
21492;SDS011;10908;50.690;4.400;2023-04-06T14:07:59;22.50;;;13.57;;
21492;SDS011;10908;50.690;4.400;2023-04-06T14:10:25;18.80;;;12.20;;
21492;SDS011;10908;50.690;4.400;2023-04-06T14:12:52;20.17;;;12.32;;
21492;SDS011;10908;50.690;4.400;2023-04-06T14:15:18;20.60;;;12.77;;
21492;SDS011;10908;50.690;4.400;2023-04-06T14:17:44;18.88;;;12.00;;
21492;SDS011;10908;50.690;4.400;2023-04-06T14:20:09;21.27;;;12.77;;
21492;SDS011;10908;50.690;4.400;2023-04-06T14:22:40;20.83;;;12.60;;
21492;SDS011;10908;50.690;4.400;2023-04-06T14:25:07;22.17;;;12.80;;
21492;SDS011;10908;50.690;4.400;2023-04-06T14:27:33;21.13;;;12.73;;
21492;SDS011;10908;50.690;4.400;2023-04-06T14:29:59;19.52;;;12.60;;
21492;SDS011;10908;50.690;4.400;2023-04-06T14:32:25;24.58;;;13.27;;